createdAt,value
2023-08-25T00:01:41.024Z,59
2023-08-25T00:06:47.439Z,59
2023-08-25T00:11:53.882Z,59
2023-08-25T00:17:00.264Z,59
2023-08-25T00:22:06.705Z,59
2023-08-25T00:27:13.087Z,59
2023-08-25T00:32:19.506Z,59
2023-08-25T00:37:25.974Z,59
2023-08-25T00:42:32.384Z,59
2023-08-25T00:47:38.909Z,59
2023-08-25T00:52:45.177Z,59
2023-08-25T00:57:51.737Z,59
2023-08-25T01:02:57.992Z,59
2023-08-25T01:08:04.565Z,59
2023-08-25T01:13:11.108Z,59
2023-08-25T01:18:17.246Z,59
2023-08-25T01:23:23.805Z,59
2023-08-25T01:28:30.194Z,59
2023-08-25T01:33:36.512Z,59
2023-08-25T01:38:43.027Z,59
2023-08-25T01:43:49.309Z,59
2023-08-25T01:48:55.872Z,59
2023-08-25T01:54:02.105Z,59
2023-08-25T01:59:08.708Z,59
2023-08-25T02:04:15.099Z,59
2023-08-25T02:09:21.344Z,59
2023-08-25T02:14:27.758Z,59
2023-08-25T02:19:34.225Z,59
2023-08-25T02:24:40.602Z,59
2023-08-25T02:29:46.998Z,59
2023-08-25T02:34:53.468Z,59
2023-08-25T02:39:59.884Z,59
2023-08-25T02:45:06.361Z,59.5
2023-08-25T02:50:12.670Z,59.5
2023-08-25T02:55:19.070Z,59.5
2023-08-25T03:00:25.594Z,59.5
2023-08-25T03:05:31.920Z,59.5
2023-08-25T03:10:38.441Z,59.5
2023-08-25T03:15:44.722Z,59.5
2023-08-25T03:20:51.174Z,59.5
2023-08-25T03:25:57.569Z,59.5
2023-08-25T03:31:03.958Z,59.5
2023-08-25T03:36:10.371Z,59.5
2023-08-25T03:41:16.803Z,59.5
2023-08-25T03:46:23.293Z,59.5
2023-08-25T03:51:29.622Z,59.5
2023-08-25T03:56:35.998Z,59.5
2023-08-25T04:01:42.303Z,59.5
2023-08-25T04:06:48.659Z,59.5
2023-08-25T04:11:55.021Z,59.5
2023-08-25T04:17:01.327Z,59.5
2023-08-25T04:22:07.657Z,59.5
2023-08-25T04:27:13.931Z,59.5
2023-08-25T04:32:20.257Z,59.5
2023-08-25T04:37:26.548Z,59.5
2023-08-25T04:42:33.000Z,59.5
2023-08-25T04:47:39.286Z,59.5
2023-08-25T04:52:45.582Z,59.5
2023-08-25T04:57:51.764Z,59
2023-08-25T05:02:58.172Z,59
2023-08-25T05:08:04.366Z,59
2023-08-25T05:13:10.884Z,59
2023-08-25T05:18:17.404Z,59
2023-08-25T05:23:23.439Z,59
2023-08-25T05:28:29.928Z,59
2023-08-25T05:33:36.023Z,59
2023-08-25T05:38:42.412Z,59
2023-08-25T05:43:48.752Z,59
2023-08-25T05:48:54.818Z,59
2023-08-25T05:54:01.180Z,59
2023-08-25T05:59:07.424Z,59
2023-08-25T06:04:13.884Z,58.5
2023-08-25T06:09:20.416Z,58.5
2023-08-25T06:14:26.480Z,58.5
2023-08-25T06:19:32.784Z,58.5
2023-08-25T06:24:39.123Z,58.5
2023-08-25T06:29:45.316Z,58.5
2023-08-25T06:34:51.623Z,58
2023-08-25T06:39:58.180Z,58
2023-08-25T06:45:04.175Z,58
2023-08-25T06:50:10.697Z,58
2023-08-25T06:55:16.908Z,58
2023-08-25T07:00:23.225Z,58
2023-08-25T07:05:29.409Z,57.5
2023-08-25T07:10:35.735Z,57.5
2023-08-25T07:15:42.120Z,57.5
2023-08-25T07:20:48.324Z,57.5
2023-08-25T07:25:54.610Z,57.5
2023-08-25T07:31:01.161Z,57.5
2023-08-25T07:36:07.300Z,57.5
2023-08-25T07:41:13.527Z,57
2023-08-25T07:46:19.842Z,57
2023-08-25T07:51:26.203Z,57
2023-08-25T07:56:32.444Z,57
2023-08-25T08:01:38.827Z,57
2023-08-25T08:06:45.094Z,57
2023-08-25T08:11:51.360Z,57
2023-08-25T08:16:57.698Z,57
2023-08-25T08:22:03.975Z,57
2023-08-25T08:27:10.362Z,56.5
2023-08-25T08:32:16.701Z,56.5
2023-08-25T08:37:23.031Z,56.5
2023-08-25T08:42:29.300Z,56.5
2023-08-25T08:47:35.520Z,56.5
2023-08-25T08:52:41.822Z,56
2023-08-25T08:57:48.197Z,56
2023-08-25T09:02:54.441Z,56
2023-08-25T09:08:00.749Z,56
2023-08-25T09:13:07.096Z,56
2023-08-25T09:18:13.696Z,56
2023-08-25T09:23:20.048Z,56
2023-08-25T09:28:26.148Z,56
2023-08-25T09:33:32.606Z,56
2023-08-25T09:38:38.736Z,56
2023-08-25T09:43:44.890Z,56
2023-08-25T09:48:51.413Z,56.5
2023-08-25T09:53:57.607Z,56.5
2023-08-25T09:59:03.917Z,56.5
2023-08-25T10:04:10.197Z,56.5
2023-08-25T10:09:16.488Z,56.5
2023-08-25T10:14:22.841Z,57
2023-08-25T10:19:29.112Z,57
2023-08-25T10:24:35.413Z,57
2023-08-25T10:29:41.789Z,57
2023-08-25T10:34:48.042Z,57
2023-08-25T10:39:54.361Z,57
2023-08-25T10:45:00.575Z,57
2023-08-25T10:50:06.888Z,57.5
2023-08-25T10:55:13.464Z,57.5
2023-08-25T11:00:19.603Z,57.5
2023-08-25T11:05:25.806Z,57.5
2023-08-25T11:10:32.325Z,57.5
2023-08-25T11:15:38.471Z,57.5
2023-08-25T11:20:44.806Z,57.5
2023-08-25T11:25:51.091Z,57.5
2023-08-25T11:30:57.489Z,57.5
2023-08-25T11:36:03.817Z,57.5
2023-08-25T11:41:10.023Z,58
2023-08-25T11:46:16.289Z,57.5
2023-08-25T11:51:22.561Z,57.5
2023-08-25T11:56:29.122Z,58
2023-08-25T12:01:35.170Z,58
2023-08-25T12:06:41.725Z,58
2023-08-25T12:11:47.800Z,58
2023-08-25T12:16:54.198Z,58
2023-08-25T12:22:00.541Z,58
2023-08-25T12:27:06.788Z,58
2023-08-25T12:32:13.169Z,58
2023-08-25T12:37:19.555Z,58
2023-08-25T12:42:25.674Z,58
2023-08-25T12:47:31.934Z,58
2023-08-25T12:52:38.277Z,57.5
2023-08-25T12:57:44.615Z,57
2023-08-25T13:02:50.877Z,56.5
2023-08-25T13:07:57.183Z,56.5
2023-08-25T13:13:03.482Z,56.5
2023-08-25T13:18:09.804Z,56.5
2023-08-25T13:23:16.092Z,56.5
2023-08-25T13:28:22.534Z,56.5
2023-08-25T13:33:28.750Z,56.5
2023-08-25T13:38:35.147Z,56.5
2023-08-25T13:43:41.327Z,56.5
2023-08-25T13:48:47.712Z,56.5
2023-08-25T13:53:54.025Z,56.5
2023-08-25T13:59:00.336Z,56.5
2023-08-25T14:04:06.726Z,56.5
2023-08-25T14:09:12.905Z,56.5
2023-08-25T14:14:19.169Z,56.5
2023-08-25T14:19:25.480Z,57
2023-08-25T14:24:31.785Z,57
2023-08-25T14:29:38.089Z,57
2023-08-25T14:34:44.538Z,57
2023-08-25T14:39:50.703Z,57.5
2023-08-25T14:44:57.045Z,57.5
2023-08-25T14:50:03.401Z,57.5
2023-08-25T14:55:09.706Z,57.5
2023-08-25T15:00:16.006Z,57.5
2023-08-25T15:05:22.233Z,58
2023-08-25T15:10:28.530Z,58
2023-08-25T15:15:34.840Z,58
2023-08-25T15:20:41.144Z,58
2023-08-25T15:25:47.495Z,58
2023-08-25T15:30:53.781Z,58
2023-08-25T15:36:00.058Z,58
2023-08-25T15:41:06.371Z,58.5
2023-08-25T15:46:12.842Z,58.5
2023-08-25T15:51:18.993Z,58.5
2023-08-25T15:56:25.305Z,58
2023-08-25T16:01:31.607Z,57.5
2023-08-25T16:06:37.906Z,57.5
2023-08-25T16:11:44.278Z,57.5
2023-08-25T16:16:50.519Z,57.5
2023-08-25T16:21:56.995Z,57.5
2023-08-25T16:27:03.143Z,57.5
2023-08-25T16:32:09.487Z,57.5
2023-08-25T16:37:15.780Z,57.5
2023-08-25T16:42:22.057Z,57.5
2023-08-25T16:47:28.421Z,57.5
2023-08-25T16:52:34.659Z,57.5
2023-08-25T16:57:41.002Z,57.5
2023-08-25T17:02:47.281Z,57.5
2023-08-25T17:07:53.575Z,57.5
2023-08-25T17:12:59.902Z,57.5
2023-08-25T17:18:06.203Z,57.5
2023-08-25T17:23:12.499Z,57.5
2023-08-25T17:28:18.892Z,57.5
2023-08-25T17:33:25.227Z,57.5
2023-08-25T17:38:31.651Z,57.5
2023-08-25T17:43:37.979Z,58
2023-08-25T17:48:44.115Z,58
2023-08-25T17:53:50.380Z,58
2023-08-25T17:58:56.654Z,58
2023-08-25T18:04:02.966Z,58
2023-08-25T18:09:09.264Z,58
2023-08-25T18:14:15.627Z,58
2023-08-25T18:19:21.883Z,58
2023-08-25T18:24:28.265Z,58
2023-08-25T18:29:34.472Z,58
2023-08-25T18:34:40.892Z,58.5
2023-08-25T18:39:47.207Z,58.5
2023-08-25T18:44:53.728Z,58.5
2023-08-25T18:50:00.112Z,58.5
2023-08-25T18:55:06.488Z,58.5
2023-08-25T19:00:12.890Z,58.5
2023-08-25T19:05:19.311Z,58.5
2023-08-25T19:10:25.738Z,58.5
2023-08-25T19:15:32.260Z,59
2023-08-25T19:20:38.594Z,59
2023-08-25T19:25:44.928Z,59
2023-08-25T19:30:51.330Z,59
2023-08-25T19:35:57.744Z,59
2023-08-25T19:41:04.158Z,59
2023-08-25T19:46:10.669Z,59
2023-08-25T19:51:16.981Z,59
2023-08-25T19:56:23.500Z,59
2023-08-25T20:01:29.853Z,59
2023-08-25T20:06:36.244Z,59
2023-08-25T20:11:42.666Z,59
2023-08-25T20:16:49.165Z,59
2023-08-25T20:21:55.614Z,59
2023-08-25T20:27:01.868Z,59
2023-08-25T20:32:08.339Z,59
2023-08-25T20:37:14.710Z,59
2023-08-25T20:42:21.152Z,59
2023-08-25T20:47:27.600Z,59
2023-08-25T20:52:33.985Z,59
2023-08-25T20:57:40.347Z,59
2023-08-25T21:02:46.770Z,59
2023-08-25T21:07:53.172Z,59
2023-08-25T21:12:59.583Z,59
2023-08-25T21:18:06.029Z,59
2023-08-25T21:23:12.408Z,59
2023-08-25T21:28:18.823Z,59
2023-08-25T21:33:25.227Z,59
2023-08-25T21:38:31.652Z,59
2023-08-25T21:43:38.062Z,59
2023-08-25T21:48:44.507Z,59
2023-08-25T21:53:50.901Z,59
2023-08-25T21:58:57.308Z,59
2023-08-25T22:04:03.714Z,59
2023-08-25T22:09:10.126Z,59
2023-08-25T22:14:16.545Z,59
2023-08-25T22:19:22.955Z,59.5
2023-08-25T22:24:29.369Z,59.5
2023-08-25T22:29:35.783Z,59.5
2023-08-25T22:34:42.191Z,59.5
2023-08-25T22:39:48.597Z,59.5
2023-08-25T22:44:55.016Z,59
2023-08-25T22:50:01.449Z,59
2023-08-25T22:55:07.855Z,59
2023-08-25T23:00:14.251Z,59
2023-08-25T23:05:20.683Z,59.5
2023-08-25T23:10:27.076Z,59.5
2023-08-25T23:15:33.497Z,59
2023-08-25T23:20:39.909Z,59.5
2023-08-25T23:25:46.325Z,59.5
2023-08-25T23:30:52.731Z,59
2023-08-25T23:35:59.150Z,59.5
2023-08-25T23:41:05.561Z,59
2023-08-25T23:46:11.973Z,59.5
2023-08-25T23:51:18.396Z,59.5
2023-08-25T23:56:24.807Z,59.5
